Time,TemperatureF,DewpointF,PressureIn,WindDirection,WindDirectionDegrees,WindSpeedMPH,WindSpeedGustMPH,Humidity,HourlyPrecipIn,Conditions,Clouds,dailyrainin,SoftwareType,DateUTC
2013-05-19 00:11:00,53.6,38.0,30.23,ESE,105,1.0,3.0,55,0.00,,,0.00,weatherlink.com 1.10,2013-05-19 04:11:00,
2013-05-19 00:26:00,53.9,38.0,30.23,ENE,70,0.0,1.0,55,0.00,,,0.00,weatherlink.com 1.10,2013-05-19 04:26:00,
2013-05-19 00:41:00,52.8,38.0,30.23,ENE,71,0.0,2.0,58,0.00,,,0.00,weatherlink.com 1.10,2013-05-19 04:41:00,
2013-05-19 00:56:00,51.8,40.0,30.23,East,82,1.0,2.0,64,0.00,,,0.00,weatherlink.com 1.10,2013-05-19 04:56:00,
2013-05-19 01:11:00,51.3,41.0,30.22,East,81,1.0,1.0,69,0.00,,,0.00,weatherlink.com 1.10,2013-05-19 05:11:00,
2013-05-19 01:26:00,51.1,42.0,30.22,East,98,1.0,2.0,70,0.00,,,0.00,weatherlink.com 1.10,2013-05-19 05:26:00,
2013-05-19 01:41:00,50.6,42.0,30.22,ESE,105,0.0,3.0,72,0.00,,,0.00,weatherlink.com 1.10,2013-05-19 05:41:00,
2013-05-19 01:56:00,50.5,43.0,30.22,East,82,0.0,2.0,74,0.00,,,0.00,weatherlink.com 1.10,2013-05-19 05:56:00,
2013-05-19 02:11:00,50.4,42.0,30.22,East,86,2.0,2.0,74,0.00,,,0.00,weatherlink.com 1.10,2013-05-19 06:11:00,
2013-05-19 02:26:00,50.5,43.0,30.22,ENE,68,0.0,2.0,75,0.00,,,0.00,weatherlink.com 1.10,2013-05-19 06:26:00,
2013-05-19 02:41:00,50.6,44.0,30.22,East,87,1.0,2.0,77,0.00,,,0.00,weatherlink.com 1.10,2013-05-19 06:41:00,
2013-05-19 02:56:00,50.3,44.0,30.22,East,86,0.0,2.0,78,0.00,,,0.00,weatherlink.com 1.10,2013-05-19 06:56:00,
2013-05-19 03:12:00,49.9,44.0,30.23,ENE,68,1.0,3.0,79,0.00,,,0.00,weatherlink.com 1.10,2013-05-19 07:12:00,
2013-05-19 03:27:00,50.0,44.0,30.22,ESE,105,0.0,3.0,80,0.00,,,0.00,weatherlink.com 1.10,2013-05-19 07:27:00,
2013-05-19 03:42:00,49.9,44.0,30.23,ENE,72,1.0,2.0,80,0.00,,,0.00,weatherlink.com 1.10,2013-05-19 07:42:00,
2013-05-19 03:57:00,49.8,44.0,30.23,SE,143,0.0,2.0,81,0.00,,,0.00,weatherlink.com 1.10,2013-05-19 07:57:00,
2013-05-19 04:12:00,49.9,44.0,30.23,ESE,117,0.0,1.0,81,0.00,,,0.00,weatherlink.com 1.10,2013-05-19 08:12:00,
2013-05-19 04:27:00,50.4,45.0,30.23,ENE,75,1.0,2.0,81,0.00,,,0.00,weatherlink.com 1.10,2013-05-19 08:27:00,
2013-05-19 04:42:00,50.2,45.0,30.23,ENE,66,0.0,2.0,81,0.00,,,0.00,weatherlink.com 1.10,2013-05-19 08:42:00,
2013-05-19 04:57:00,49.9,45.0,30.23,ENE,58,3.0,3.0,82,0.00,,,0.00,weatherlink.com 1.10,2013-05-19 08:57:00,
2013-05-19 05:12:00,49.5,44.0,30.23,East,93,1.0,1.0,82,0.00,,,0.00,weatherlink.com 1.10,2013-05-19 09:12:00,
2013-05-19 05:27:00,49.3,44.0,30.23,ESE,110,0.0,2.0,83,0.00,,,0.00,weatherlink.com 1.10,2013-05-19 09:27:00,
2013-05-19 05:42:00,49.3,44.0,30.24,ENE,75,0.0,2.0,83,0.00,,,0.00,weatherlink.com 1.10,2013-05-19 09:42:00,
2013-05-19 05:57:00,49.8,45.0,30.24,East,91,0.0,3.0,83,0.00,,,0.00,weatherlink.com 1.10,2013-05-19 09:57:00,
2013-05-19 06:12:00,50.3,45.0,30.24,East,92,0.0,2.0,82,0.00,,,0.00,weatherlink.com 1.10,2013-05-19 10:12:00,
2013-05-19 06:27:00,50.6,45.0,30.24,NE,53,0.0,3.0,82,0.00,,,0.00,weatherlink.com 1.10,2013-05-19 10:27:00,
2013-05-19 06:42:00,51.3,45.0,30.24,SE,131,0.0,2.0,80,0.00,,,0.00,weatherlink.com 1.10,2013-05-19 10:42:00,
2013-05-19 06:57:00,52.1,46.0,30.24,ESE,111,0.0,2.0,79,0.00,,,0.00,weatherlink.com 1.10,2013-05-19 10:57:00,
2013-05-19 07:12:00,52.8,47.0,30.24,East,96,0.0,1.0,80,0.00,,,0.00,weatherlink.com 1.10,2013-05-19 11:12:00,
2013-05-19 07:27:00,53.2,47.0,30.24,East,94,0.0,1.0,78,0.00,,,0.00,weatherlink.com 1.10,2013-05-19 11:27:00,
2013-05-19 07:42:00,52.9,47.0,30.24,West,278,0.0,1.0,80,0.00,,,0.00,weatherlink.com 1.10,2013-05-19 11:42:00,
2013-05-19 07:57:00,52.9,46.0,30.24,ESE,110,0.0,1.0,78,0.00,,,0.00,weatherlink.com 1.10,2013-05-19 11:57:00,
2013-05-19 08:12:00,53.8,47.0,30.24,ESE,117,0.0,3.0,77,0.00,,,0.00,weatherlink.com 1.10,2013-05-19 12:12:00,
2013-05-19 08:27:00,55.0,46.0,30.24,SE,146,0.0,3.0,72,0.00,,,0.00,weatherlink.com 1.10,2013-05-19 12:27:00,
2013-05-19 08:42:00,56.6,47.0,30.24,WNW,285,0.0,2.0,71,0.00,,,0.00,weatherlink.com 1.10,2013-05-19 12:42:00,
2013-05-19 08:57:00,58.1,47.0,30.24,West,263,0.0,2.0,67,0.00,,,0.00,weatherlink.com 1.10,2013-05-19 12:57:00,
2013-05-19 09:12:00,59.0,47.0,30.24,West,269,0.0,2.0,65,0.00,,,0.00,weatherlink.com 1.10,2013-05-19 13:12:00,
2013-05-19 09:27:00,58.7,48.0,30.24,NW,316,3.0,5.0,68,0.00,,,0.00,weatherlink.com 1.10,2013-05-19 13:27:00,
2013-05-19 09:42:00,58.2,49.0,30.24,WNW,302,2.0,3.0,71,0.00,,,0.00,weatherlink.com 1.10,2013-05-19 13:42:00,
2013-05-19 09:57:00,58.8,49.0,30.24,NW,307,1.0,3.0,70,0.00,,,0.00,weatherlink.com 1.10,2013-05-19 13:57:00,
2013-05-19 10:12:00,60.1,48.0,30.24,ENE,62,0.0,1.0,65,0.00,,,0.00,weatherlink.com 1.10,2013-05-19 14:12:00,
2013-05-19 10:27:00,61.2,49.0,30.24,West,259,0.0,2.0,65,0.00,,,0.00,weatherlink.com 1.10,2013-05-19 14:27:00,
2013-05-19 10:42:00,62.8,50.0,30.24,West,260,1.0,2.0,64,0.00,,,0.00,weatherlink.com 1.10,2013-05-19 14:42:00,
2013-05-19 10:57:00,62.2,50.0,30.24,WNW,290,1.0,3.0,65,0.00,,,0.00,weatherlink.com 1.10,2013-05-19 14:57:00,
2013-05-19 11:12:00,62.0,50.0,30.24,WNW,291,0.0,4.0,65,0.00,,,0.00,weatherlink.com 1.10,2013-05-19 15:12:00,
2013-05-19 11:27:00,62.5,50.0,30.23,SSW,198,0.0,4.0,65,0.00,,,0.00,weatherlink.com 1.10,2013-05-19 15:27:00,
2013-05-19 11:42:00,63.0,51.0,30.23,NE,37,0.0,2.0,65,0.00,,,0.00,weatherlink.com 1.10,2013-05-19 15:42:00,
2013-05-19 11:57:00,63.0,52.0,30.23,West,276,1.0,4.0,67,0.00,,,0.00,weatherlink.com 1.10,2013-05-19 15:57:00,
2013-05-19 12:12:00,62.6,51.0,30.22,WNW,291,2.0,8.0,66,0.00,,,0.00,weatherlink.com 1.10,2013-05-19 16:12:00,
2013-05-19 12:28:00,62.7,50.0,30.21,SW,214,2.0,6.0,64,0.00,,,0.00,weatherlink.com 1.10,2013-05-19 16:28:00,
2013-05-19 12:43:00,64.9,51.0,30.21,SSW,208,2.0,4.0,61,0.00,,,0.00,weatherlink.com 1.10,2013-05-19 16:43:00,
2013-05-19 12:58:00,65.0,52.0,30.21,SW,221,1.0,3.0,63,0.00,,,0.00,weatherlink.com 1.10,2013-05-19 16:58:00,
2013-05-19 13:13:00,63.3,52.0,30.21,WNW,285,3.0,5.0,67,0.00,,,0.00,weatherlink.com 1.10,2013-05-19 17:13:00,
2013-05-19 13:28:00,61.1,52.0,30.21,West,278,1.0,5.0,73,0.00,,,0.00,weatherlink.com 1.10,2013-05-19 17:28:00,
2013-05-19 13:43:00,59.4,52.0,30.21,WNW,293,1.0,5.0,77,0.00,,,0.00,weatherlink.com 1.10,2013-05-19 17:43:00,
2013-05-19 13:58:00,59.2,52.0,30.21,WSW,239,0.0,4.0,77,0.00,,,0.00,weatherlink.com 1.10,2013-05-19 17:58:00,
2013-05-19 14:13:00,58.2,51.0,30.21,WNW,293,1.0,5.0,78,0.00,,,0.00,weatherlink.com 1.10,2013-05-19 18:13:00,
2013-05-19 14:28:00,57.2,51.0,30.21,West,266,2.0,3.0,81,0.00,,,0.00,weatherlink.com 1.10,2013-05-19 18:28:00,
2013-05-19 14:43:00,57.0,52.0,30.21,West,281,0.0,2.0,82,0.00,,,0.00,weatherlink.com 1.10,2013-05-19 18:43:00,
2013-05-19 14:58:00,56.9,52.0,30.20,SE,135,1.0,2.0,82,0.00,,,0.00,weatherlink.com 1.10,2013-05-19 18:58:00,
2013-05-19 15:13:00,56.5,52.0,30.20,South,190,2.0,2.0,84,0.00,,,0.00,weatherlink.com 1.10,2013-05-19 19:13:00,
2013-05-19 15:28:00,56.1,51.0,30.19,West,264,1.0,2.0,84,0.00,,,0.00,weatherlink.com 1.10,2013-05-19 19:28:00,
2013-05-19 15:43:00,55.2,51.0,30.20,East,81,1.0,5.0,86,0.00,,,0.00,weatherlink.com 1.10,2013-05-19 19:43:00,
2013-05-19 15:58:00,54.7,51.0,30.19,West,268,0.0,2.0,88,0.00,,,0.00,weatherlink.com 1.10,2013-05-19 19:58:00,
2013-05-19 16:13:00,54.7,51.0,30.19,WNW,283,1.0,2.0,88,0.00,,,0.00,weatherlink.com 1.10,2013-05-19 20:13:00,
2013-05-19 16:28:00,54.4,51.0,30.19,WNW,285,0.0,3.0,88,0.00,,,0.00,weatherlink.com 1.10,2013-05-19 20:28:00,
2013-05-19 16:43:00,54.3,51.0,30.18,WNW,283,2.0,3.0,89,0.00,,,0.00,weatherlink.com 1.10,2013-05-19 20:43:00,
2013-05-19 16:58:00,54.2,51.0,30.18,West,278,0.0,2.0,90,0.00,,,0.00,weatherlink.com 1.10,2013-05-19 20:58:00,
2013-05-19 17:13:00,53.9,51.0,30.18,WNW,282,1.0,4.0,91,0.00,,,0.00,weatherlink.com 1.10,2013-05-19 21:13:00,
2013-05-19 17:28:00,53.7,51.0,30.17,SSE,152,0.0,2.0,91,0.00,,,0.00,weatherlink.com 1.10,2013-05-19 21:28:00,
2013-05-19 17:43:00,53.5,51.0,30.16,NE,34,1.0,3.0,92,0.01,,,0.01,weatherlink.com 1.10,2013-05-19 21:43:00,
2013-05-19 17:58:00,53.6,51.0,30.16,NNW,340,1.0,1.0,92,0.01,,,0.01,weatherlink.com 1.10,2013-05-19 21:58:00,
2013-05-19 18:13:00,53.4,51.0,30.15,West,268,1.0,3.0,92,0.01,,,0.01,weatherlink.com 1.10,2013-05-19 22:13:00,
2013-05-19 18:28:00,53.3,51.0,30.15,WNW,295,1.0,4.0,92,0.01,,,0.01,weatherlink.com 1.10,2013-05-19 22:28:00,
2013-05-19 18:43:00,53.1,51.0,30.15,WNW,303,0.0,3.0,92,0.01,,,0.02,weatherlink.com 1.10,2013-05-19 22:43:00,
2013-05-19 18:58:00,52.8,51.0,30.14,NW,306,0.0,2.0,93,0.02,,,0.03,weatherlink.com 1.10,2013-05-19 22:58:00,
2013-05-19 19:13:00,52.6,51.0,30.14,WSW,255,2.0,3.0,93,0.04,,,0.05,weatherlink.com 1.10,2013-05-19 23:13:00,
2013-05-19 19:28:00,52.4,51.0,30.14,NNE,32,2.0,2.0,93,0.06,,,0.07,weatherlink.com 1.10,2013-05-19 23:28:00,
2013-05-19 19:43:00,52.2,50.0,30.14,North,4,1.0,3.0,93,0.06,,,0.08,weatherlink.com 1.10,2013-05-19 23:43:00,
2013-05-19 19:58:00,52.2,50.0,30.13,NNE,15,1.0,2.0,93,0.05,,,0.08,weatherlink.com 1.10,2013-05-19 23:58:00,
2013-05-19 20:12:00,52.1,50.0,30.13,WNW,303,1.0,3.0,93,0.04,,,0.09,weatherlink.com 1.10,2013-05-20 00:12:00,
2013-05-19 20:27:00,52.1,50.0,30.13,NE,54,0.0,3.0,93,0.03,,,0.10,weatherlink.com 1.10,2013-05-20 00:27:00,
2013-05-19 20:42:00,52.0,50.0,30.14,NNW,330,0.0,2.0,93,0.06,,,0.14,weatherlink.com 1.10,2013-05-20 00:42:00,
2013-05-19 20:57:00,51.9,50.0,30.14,WNW,288,1.0,1.0,94,0.13,,,0.21,weatherlink.com 1.10,2013-05-20 00:57:00,
2013-05-19 21:13:00,51.9,50.0,30.14,East,80,1.0,2.0,94,0.18,,,0.27,weatherlink.com 1.10,2013-05-20 01:13:00,
2013-05-19 21:28:00,51.9,50.0,30.14,North,9,1.0,3.0,94,0.23,,,0.33,weatherlink.com 1.10,2013-05-20 01:28:00,
2013-05-19 21:43:00,51.9,50.0,30.14,West,260,1.0,2.0,94,0.23,,,0.37,weatherlink.com 1.10,2013-05-20 01:43:00,
2013-05-19 21:58:00,52.0,51.0,30.14,WNW,290,1.0,2.0,95,0.21,,,0.42,weatherlink.com 1.10,2013-05-20 01:58:00,
2013-05-19 22:13:00,52.0,51.0,30.13,SSE,158,0.0,3.0,95,0.24,,,0.52,weatherlink.com 1.10,2013-05-20 02:13:00,
2013-05-19 22:28:00,52.0,51.0,30.12,West,265,0.0,3.0,95,0.20,,,0.53,weatherlink.com 1.10,2013-05-20 02:28:00,
2013-05-19 22:43:00,52.0,51.0,30.12,NE,44,2.0,7.0,95,0.17,,,0.54,weatherlink.com 1.10,2013-05-20 02:43:00,
2013-05-19 22:58:00,52.1,51.0,30.12,ENE,61,2.0,4.0,95,0.13,,,0.55,weatherlink.com 1.10,2013-05-20 02:58:00,
2013-05-19 23:13:00,52.1,51.0,30.11,WSW,257,2.0,4.0,95,0.03,,,0.55,weatherlink.com 1.10,2013-05-20 03:13:00,
2013-05-19 23:28:00,52.1,51.0,30.11,SW,221,2.0,5.0,95,0.02,,,0.55,weatherlink.com 1.10,2013-05-20 03:28:00,
2013-05-19 23:43:00,52.2,51.0,30.10,SW,215,0.0,5.0,95,0.04,,,0.58,weatherlink.com 1.10,2013-05-20 03:43:00,
2013-05-19 23:58:00,52.1,51.0,30.10,WNW,284,4.0,4.0,95,0.04,,,0.59,weatherlink.com 1.10,2013-05-20 03:58:00,